Time;durP1;ratioP1;P1;durP2;ratioP2;P2;SDS_P1;SDS_P2;PMS_P1;PMS_P2;Temp;Humidity;BMP_temperature;BMP_pressure;BME280_temperature;BME280_humidity;BME280_pressure;Samples;Min_cycle;Max_cycle;Signal;HPM_P1;HPM_P2
2024/01/10 00:01:56;;;;;;;18.73;11.38;;;-3.40;99.90;;;;;;6240905;23;20070;-81
2024/01/10 00:04:22;;;;;;;19.83;11.27;;;-3.40;99.90;;;;;;6241714;23;20012;-81
2024/01/10 00:06:47;;;;;;;17.20;12.35;;;-3.40;99.90;;;;;;6212676;23;20246;-82
2024/01/10 00:09:13;;;;;;;20.10;12.30;;;-3.40;99.90;;;;;;6238548;23;20023;-81
2024/01/10 00:11:39;;;;;;;19.05;12.35;;;-3.40;99.90;;;;;;6237993;23;20438;-82
2024/01/10 00:14:05;;;;;;;19.75;12.30;;;-3.40;99.90;;;;;;6238834;23;20031;-81
2024/01/10 00:16:30;;;;;;;19.20;12.45;;;-3.40;99.90;;;;;;6238396;23;20016;-80
2024/01/10 00:18:56;;;;;;;20.63;13.13;;;-3.40;99.90;;;;;;6237451;23;20109;-81
2024/01/10 00:21:21;;;;;;;20.07;13.40;;;-3.40;99.90;;;;;;6237288;23;20051;-81
2024/01/10 00:23:47;;;;;;;21.37;13.03;;;-3.40;99.90;;;;;;6238081;23;20271;-81
2024/01/10 00:26:13;;;;;;;19.83;12.68;;;-3.40;99.90;;;;;;6239716;23;20239;-80
2024/01/10 00:28:38;;;;;;;18.67;13.07;;;-3.50;99.90;;;;;;6238850;23;20027;-81
2024/01/10 00:31:04;;;;;;;19.10;12.43;;;-3.40;99.90;;;;;;6238233;23;20023;-81
2024/01/10 00:33:30;;;;;;;18.00;12.75;;;-3.50;99.90;;;;;;6238953;23;20597;-81
2024/01/10 00:35:55;;;;;;;18.58;11.95;;;-3.50;99.90;;;;;;6237443;23;20016;-81
2024/01/10 00:38:21;;;;;;;19.80;13.23;;;-3.50;99.90;;;;;;6240430;23;20143;-82
2024/01/10 00:40:46;;;;;;;21.83;14.27;;;-3.50;99.90;;;;;;6237652;23;20047;-82
2024/01/10 00:43:12;;;;;;;18.03;11.63;;;-3.50;99.90;;;;;;6237964;23;20012;-82
2024/01/10 00:45:38;;;;;;;22.33;14.07;;;-3.50;99.90;;;;;;6238136;23;20243;-81
2024/01/10 00:48:04;;;;;;;21.67;14.25;;;-3.50;99.90;;;;;;6239682;23;20019;-81
2024/01/10 00:50:29;;;;;;;24.02;14.98;;;-3.50;99.90;;;;;;6212042;23;20088;-81
2024/01/10 00:52:55;;;;;;;20.03;14.57;;;-3.50;99.90;;;;;;6238034;23;20040;-81
2024/01/10 00:55:20;;;;;;;23.23;15.23;;;-3.60;99.90;;;;;;6239813;23;20289;-81
2024/01/10 00:57:46;;;;;;;21.13;13.90;;;-3.60;99.90;;;;;;6236863;23;20267;-80
2024/01/10 01:00:12;;;;;;;23.80;15.75;;;-3.60;99.90;;;;;;6238564;23;20047;-81
2024/01/10 01:02:41;;;;;;;23.05;15.20;;;-3.70;99.90;;;;;;6212601;23;20012;-81
2024/01/10 01:05:07;;;;;;;23.25;14.60;;;-3.70;99.90;;;;;;6237178;23;20459;-81
2024/01/10 01:07:33;;;;;;;23.70;14.65;;;-3.70;99.90;;;;;;6212641;23;20117;-81
2024/01/10 01:09:59;;;;;;;22.90;14.38;;;-3.70;99.90;;;;;;6238232;23;20388;-82
2024/01/10 01:12:25;;;;;;;25.08;15.68;;;-3.70;99.90;;;;;;6237549;23;20301;-81
2024/01/10 01:14:51;;;;;;;22.75;13.88;;;-3.70;99.90;;;;;;6237802;23;20039;-82
2024/01/10 01:17:16;;;;;;;22.47;13.70;;;-3.70;99.90;;;;;;6211968;23;20012;-81
2024/01/10 01:19:42;;;;;;;23.35;14.13;;;-3.70;99.90;;;;;;6239077;23;20267;-81
2024/01/10 01:22:07;;;;;;;18.60;12.20;;;-3.70;99.90;;;;;;6238320;23;20015;-81
2024/01/10 01:24:33;;;;;;;21.60;13.82;;;-3.70;99.90;;;;;;6238339;23;20585;-81
2024/01/10 01:26:59;;;;;;;22.02;14.85;;;-3.70;99.90;;;;;;6236711;23;20012;-81
2024/01/10 01:29:25;;;;;;;23.75;14.88;;;-3.70;99.90;;;;;;6238323;23;20340;-81
2024/01/10 01:31:52;;;;;;;21.45;13.98;;;-3.70;99.90;;;;;;6214370;23;20016;-81
2024/01/10 01:34:17;;;;;;;24.40;14.77;;;-3.70;99.90;;;;;;6239576;23;20089;-81
2024/01/10 01:36:43;;;;;;;22.70;14.05;;;-3.70;99.90;;;;;;6214575;23;20530;-81
2024/01/10 01:39:09;;;;;;;17.57;10.70;;;-3.60;99.90;;;;;;6241370;23;20353;-82
2024/01/10 01:41:34;;;;;;;25.38;14.80;;;-3.60;99.90;;;;;;6241142;23;20239;-81
2024/01/10 01:44:00;;;;;;;20.90;11.02;;;-3.60;99.90;;;;;;6242247;23;20016;-81
2024/01/10 01:46:27;;;;;;;17.42;11.05;;;-3.60;99.90;;;;;;6239187;23;20066;-82
2024/01/10 01:48:53;;;;;;;21.38;13.82;;;-3.60;99.90;;;;;;6239588;23;20163;-81
2024/01/10 01:51:21;;;;;;;22.88;14.18;;;-3.60;99.90;;;;;;6214249;23;20016;-83
2024/01/10 01:53:49;;;;;;;22.23;13.95;;;-3.70;99.90;;;;;;6214164;23;20527;-80
2024/01/10 01:56:16;;;;;;;21.60;13.63;;;-3.60;99.90;;;;;;6214188;23;20015;-82
2024/01/10 01:58:43;;;;;;;23.52;14.57;;;-3.60;99.90;;;;;;6188991;23;20016;-82
2024/01/10 02:01:11;;;;;;;23.42;15.32;;;-3.60;99.90;;;;;;6214131;23;20467;-81
2024/01/10 02:03:37;;;;;;;22.65;14.70;;;-3.60;99.90;;;;;;6190128;23;20068;-82
2024/01/10 02:06:03;;;;;;;25.27;15.23;;;-3.60;99.90;;;;;;6214221;23;20099;-82
2024/01/10 02:08:33;;;;;;;25.75;17.35;;;-3.60;99.90;;;;;;6214650;23;20031;-82
2024/01/10 02:11:00;;;;;;;27.83;16.80;;;-3.60;99.90;;;;;;6213755;23;20086;-82
2024/01/10 02:13:25;;;;;;;27.50;17.95;;;-3.60;99.90;;;;;;6214333;23;20027;-82
2024/01/10 02:15:52;;;;;;;25.73;16.40;;;-3.60;99.90;;;;;;6213091;23;20016;-82
2024/01/10 02:18:17;;;;;;;28.25;17.38;;;-3.60;99.90;;;;;;6214412;23;20263;-81
2024/01/10 02:20:44;;;;;;;25.40;16.67;;;-3.60;99.90;;;;;;6241575;23;20026;-81
2024/01/10 02:23:10;;;;;;;30.52;17.80;;;-3.60;99.90;;;;;;6214127;23;20031;-81
2024/01/10 02:25:36;;;;;;;26.83;16.15;;;-3.60;99.90;;;;;;6214476;23;20012;-81
2024/01/10 02:28:02;;;;;;;23.77;15.45;;;-3.60;99.90;;;;;;6240588;23;20016;-81
2024/01/10 02:30:28;;;;;;;22.92;15.40;;;-3.70;99.90;;;;;;6213912;23;20103;-81
2024/01/10 02:32:53;;;;;;;22.93;14.90;;;-3.70;99.90;;;;;;6214202;23;20012;-81
2024/01/10 02:35:19;;;;;;;23.90;15.55;;;-3.70;99.90;;;;;;6189110;23;20012;-81
2024/01/10 02:37:44;;;;;;;26.65;16.10;;;-3.60;99.90;;;;;;6214286;23;20015;-81
2024/01/10 02:40:11;;;;;;;26.52;16.13;;;-3.60;99.90;;;;;;6214854;23;20484;-81
2024/01/10 02:42:36;;;;;;;24.08;15.38;;;-3.60;99.90;;;;;;6188637;23;20020;-81
2024/01/10 02:45:02;;;;;;;22.23;14.40;;;-3.60;99.90;;;;;;6213784;23;20107;-81
2024/01/10 02:47:29;;;;;;;23.35;14.40;;;-3.60;99.90;;;;;;6214091;23;20625;-82
2024/01/10 02:49:54;;;;;;;;;;;-3.70;99.90;;;;;;6214305;22;20016;-81
2024/01/10 02:52:20;;;;;;;20.75;13.55;;;-3.70;99.90;;;;;;6238899;23;20302;-82
2024/01/10 02:54:46;;;;;;;23.65;15.27;;;-3.70;99.90;;;;;;6239307;23;20085;-82
2024/01/10 02:57:13;;;;;;;22.42;14.45;;;-3.60;99.90;;;;;;6238489;23;20051;-82
2024/01/10 02:59:38;;;;;;;24.33;15.57;;;-3.60;99.90;;;;;;6238441;23;20016;-82
2024/01/10 03:02:04;;;;;;;21.90;14.20;;;-3.60;99.90;;;;;;6237700;23;20023;-82
2024/01/10 03:04:29;;;;;;;24.58;13.05;;;-3.60;99.90;;;;;;6239843;23;20227;-81
2024/01/10 03:06:55;;;;;;;23.10;14.90;;;-3.60;99.90;;;;;;6239048;23;20015;-81
2024/01/10 03:09:21;;;;;;;22.35;14.38;;;-3.60;99.90;;;;;;6238402;23;20318;-82
2024/01/10 03:11:47;;;;;;;;;;;-3.60;99.90;;;;;;6238709;23;20055;-81
2024/01/10 03:14:13;;;;;;;25.80;15.85;;;-3.60;99.90;;;;;;6238562;23;19911;-81
2024/01/10 03:16:38;;;;;;;18.45;11.50;;;-3.50;99.90;;;;;;6213945;23;20031;-81
2024/01/10 03:19:04;;;;;;;24.03;15.07;;;-3.60;99.90;;;;;;6240813;23;20008;-81
2024/01/10 03:21:30;;;;;;;24.80;16.50;;;-3.50;99.90;;;;;;6238274;23;20345;-81
2024/01/10 03:23:56;;;;;;;23.02;14.90;;;-3.50;99.90;;;;;;6238365;23;20127;-81
2024/01/10 03:26:23;;;;;;;23.42;15.00;;;-3.50;99.90;;;;;;6238006;23;20016;-81
2024/01/10 03:28:48;;;;;;;25.60;14.60;;;-3.50;99.90;;;;;;6238572;23;20023;-81
2024/01/10 03:31:15;;;;;;;21.50;14.40;;;-3.50;99.90;;;;;;6238573;23;20020;-81
2024/01/10 03:33:41;;;;;;;24.67;14.57;;;-3.60;99.90;;;;;;6238549;23;20020;-81
2024/01/10 03:36:08;;;;;;;21.10;13.80;;;-3.50;99.90;;;;;;6240556;23;20069;-81
2024/01/10 03:38:34;;;;;;;22.23;14.20;;;-3.50;99.90;;;;;;6238448;23;20027;-81
2024/01/10 03:41:00;;;;;;;20.20;13.20;;;-3.50;99.90;;;;;;6238624;23;20024;-82
2024/01/10 03:43:25;;;;;;;22.70;14.35;;;-3.50;99.90;;;;;;6238277;23;20008;-82
2024/01/10 03:45:51;;;;;;;22.27;13.55;;;-3.50;99.90;;;;;;6213796;23;20071;-82
2024/01/10 03:48:16;;;;;;;21.10;13.30;;;-3.50;99.90;;;;;;6238501;23;20024;-81
2024/01/10 03:50:42;;;;;;;21.07;13.00;;;-3.60;99.90;;;;;;6240228;22;20322;-81
2024/01/10 03:53:07;;;;;;;19.67;13.07;;;-3.60;99.90;;;;;;6239083;23;20338;-82
2024/01/10 03:55:33;;;;;;;19.98;12.70;;;-3.60;99.90;;;;;;6241281;23;20016;-82
2024/01/10 03:57:59;;;;;;;21.10;13.30;;;-3.60;99.90;;;;;;6237728;23;20254;-82
2024/01/10 04:00:25;;;;;;;22.23;12.73;;;-3.60;99.90;;;;;;6239984;23;20341;-82
2024/01/10 04:02:52;;;;;;;23.02;13.50;;;-3.60;99.90;;;;;;6239045;23;20016;-82
2024/01/10 04:05:19;;;;;;;20.77;12.63;;;-3.70;99.90;;;;;;6239048;23;20020;-81
2024/01/10 04:07:45;;;;;;;19.10;12.80;;;-3.60;99.90;;;;;;6238769;23;20270;-82
2024/01/10 04:10:11;;;;;;;18.70;12.32;;;-3.70;99.90;;;;;;6238827;23;20393;-82
2024/01/10 04:12:40;;;;;;;18.70;11.88;;;-3.70;99.90;;;;;;6238888;23;20366;-82
2024/01/10 04:15:06;;;;;;;19.67;13.25;;;-3.80;99.90;;;;;;6238316;23;20070;-82
2024/01/10 04:17:32;;;;;;;21.17;12.82;;;-3.80;99.90;;;;;;6238573;23;20016;-82
2024/01/10 04:19:58;;;;;;;22.52;13.55;;;-3.80;99.90;;;;;;6238406;23;20008;-82
2024/01/10 04:22:24;;;;;;;22.98;13.90;;;-3.80;99.90;;;;;;6238462;23;20319;-82
2024/01/10 04:24:50;;;;;;;21.42;13.75;;;-3.90;99.90;;;;;;6238143;23;20095;-82
2024/01/10 04:27:17;;;;;;;22.38;14.20;;;-3.80;99.90;;;;;;6237086;23;20382;-82
2024/01/10 04:29:43;;;;;;;20.73;13.40;;;-3.80;99.90;;;;;;6212855;23;20016;-82
2024/01/10 04:32:09;;;;;;;22.13;14.07;;;-3.90;99.90;;;;;;6238342;23;20023;-82
2024/01/10 04:34:35;;;;;;;23.73;14.57;;;-3.90;99.90;;;;;;6212289;23;20449;-82
2024/01/10 04:37:01;;;;;;;17.27;11.35;;;-3.80;99.90;;;;;;6238683;23;20016;-82
2024/01/10 04:39:26;;;;;;;22.00;14.07;;;-3.80;99.90;;;;;;6238366;23;20015;-83
2024/01/10 04:41:52;;;;;;;21.75;14.05;;;-3.80;99.90;;;;;;6212287;23;20448;-81
2024/01/10 04:44:18;;;;;;;20.40;13.85;;;-3.80;99.90;;;;;;6238384;23;20433;-82
2024/01/10 04:46:44;;;;;;;22.77;14.40;;;-3.80;99.90;;;;;;6238147;23;20013;-82
2024/01/10 04:49:09;;;;;;;23.00;14.40;;;-3.80;99.90;;;;;;6212802;23;20048;-82
2024/01/10 04:51:35;;;;;;;21.80;13.63;;;-3.80;99.90;;;;;;6237965;23;20265;-80
2024/01/10 04:54:01;;;;;;;22.40;13.98;;;-3.80;99.90;;;;;;6240087;23;20008;-80
2024/01/10 04:56:26;;;;;;;22.95;15.18;;;-3.80;99.90;;;;;;6238031;23;20035;-81
2024/01/10 04:58:52;;;;;;;21.52;13.60;;;-3.80;99.90;;;;;;6240160;23;20012;-80
2024/01/10 05:01:18;;;;;;;16.15;10.43;;;-3.80;99.90;;;;;;6236319;23;20008;-81
2024/01/10 05:03:44;;;;;;;21.30;13.35;;;-3.80;99.90;;;;;;6237744;23;20039;-83
2024/01/10 05:06:10;;;;;;;22.10;13.67;;;-3.80;99.90;;;;;;6240062;23;20028;-83
2024/01/10 05:08:36;;;;;;;20.75;13.65;;;-3.70;99.90;;;;;;6240310;23;20086;-83
2024/01/10 05:11:02;;;;;;;22.83;13.80;;;-3.80;99.90;;;;;;6238641;23;20508;-81
2024/01/10 05:13:28;;;;;;;21.70;13.55;;;-3.80;99.90;;;;;;6240548;23;20168;-80
2024/01/10 05:15:54;;;;;;;22.00;13.68;;;-3.80;99.90;;;;;;6215116;23;20016;-82
2024/01/10 05:18:20;;;;;;;19.63;13.20;;;-3.80;99.90;;;;;;6211838;23;20334;-82
2024/01/10 05:20:46;;;;;;;21.23;13.43;;;-3.80;99.90;;;;;;6239240;23;20023;-81
2024/01/10 05:23:12;;;;;;;20.40;13.15;;;-3.80;99.90;;;;;;6239963;23;20031;-81
2024/01/10 05:25:37;;;;;;;21.70;13.70;;;-3.80;99.90;;;;;;6238639;23;20015;-81
2024/01/10 05:28:03;;;;;;;24.15;14.50;;;-3.90;99.90;;;;;;6238378;23;20663;-80
2024/01/10 05:30:29;;;;;;;23.25;14.32;;;-3.80;99.90;;;;;;6239494;23;20439;-81
2024/01/10 05:32:55;;;;;;;20.77;13.65;;;-3.90;99.90;;;;;;6214269;23;20625;-81
2024/01/10 05:35:21;;;;;;;17.25;11.25;;;-3.90;99.90;;;;;;6239941;23;20012;-81
2024/01/10 05:37:46;;;;;;;24.13;13.53;;;-3.90;99.90;;;;;;6213813;23;20016;-80
2024/01/10 05:40:12;;;;;;;19.73;12.17;;;-3.90;99.90;;;;;;6238413;23;20251;-81
2024/01/10 05:42:37;;;;;;;20.85;13.40;;;-3.90;99.90;;;;;;6238752;23;20231;-82
2024/01/10 05:45:04;;;;;;;18.27;12.03;;;-3.90;99.90;;;;;;6212649;23;20433;-81
2024/01/10 05:47:30;;;;;;;22.98;13.63;;;-3.90;99.90;;;;;;6213662;23;20062;-81
2024/01/10 05:49:55;;;;;;;17.15;12.25;;;-3.90;99.90;;;;;;6239468;22;20008;-80
2024/01/10 05:52:22;;;;;;;19.08;12.38;;;-3.90;99.90;;;;;;6239544;23;20020;-81
2024/01/10 05:54:48;;;;;;;22.90;12.52;;;-3.90;99.90;;;;;;6238631;23;20069;-81
2024/01/10 05:57:17;;;;;;;22.08;13.38;;;-3.90;99.90;;;;;;6213530;23;20020;-81
2024/01/10 05:59:42;;;;;;;20.33;13.38;;;-3.90;99.90;;;;;;6239619;23;20020;-81
2024/01/10 06:02:08;;;;;;;18.67;12.83;;;-3.90;99.90;;;;;;6239356;23;20453;-81
2024/01/10 06:04:33;;;;;;;20.40;13.10;;;-3.90;99.90;;;;;;6214317;23;20109;-80
2024/01/10 06:06:59;;;;;;;20.33;12.97;;;-3.90;99.90;;;;;;6214311;23;20417;-81
2024/01/10 06:09:25;;;;;;;21.13;13.77;;;-3.90;99.90;;;;;;6239248;23;20339;-80
2024/01/10 06:11:50;;;;;;;20.73;13.50;;;-3.90;99.90;;;;;;6239119;23;20023;-81
2024/01/10 06:14:17;;;;;;;21.77;13.32;;;-3.90;99.90;;;;;;6214618;23;20016;-81
2024/01/10 06:16:43;;;;;;;20.08;13.30;;;-3.90;99.90;;;;;;6238947;23;20016;-81
2024/01/10 06:19:10;;;;;;;20.17;12.85;;;-3.90;99.90;;;;;;6213700;23;20046;-81
2024/01/10 06:21:36;;;;;;;;;;;-3.90;99.90;;;;;;6239917;23;20020;-80
2024/01/10 06:24:02;;;;;;;20.60;13.13;;;-4.00;99.90;;;;;;6212526;23;19911;-80
2024/01/10 06:26:28;;;;;;;20.02;12.57;;;-4.00;99.90;;;;;;6213648;23;20048;-80
2024/01/10 06:28:53;;;;;;;19.88;12.38;;;-4.00;99.90;;;;;;6238606;23;20072;-80
2024/01/10 06:31:20;;;;;;;21.67;12.65;;;-4.00;99.90;;;;;;6213668;23;20016;-80
2024/01/10 06:33:45;;;;;;;;;;;-4.00;99.90;;;;;;6240537;23;20252;-80
2024/01/10 06:36:11;;;;;;;20.23;12.50;;;-4.00;99.90;;;;;;6239251;23;20515;-81
2024/01/10 06:38:39;;;;;;;26.73;14.32;;;-4.00;99.90;;;;;;6238675;23;20047;-80
2024/01/10 06:41:13;;;;;;;38.08;16.67;;;-4.00;99.90;;;;;;6213989;23;20016;-80
2024/01/10 06:43:39;;;;;;;39.97;18.48;;;-4.00;99.90;;;;;;6214076;23;20016;-80
2024/01/10 06:46:05;;;;;;;29.17;15.75;;;-4.00;99.90;;;;;;6213993;23;20052;-80
2024/01/10 06:48:31;;;;;;;18.13;11.40;;;-4.00;99.90;;;;;;6214402;23;20372;-80
2024/01/10 06:50:57;;;;;;;21.42;13.68;;;-4.00;99.90;;;;;;6238117;23;20022;-80
2024/01/10 06:53:24;;;;;;;20.83;13.07;;;-4.00;99.90;;;;;;6214128;23;20051;-80
2024/01/10 06:55:49;;;;;;;21.73;13.45;;;-4.00;99.90;;;;;;6212820;23;20027;-81
2024/01/10 06:58:15;;;;;;;21.25;14.25;;;-4.00;99.90;;;;;;6237996;23;20008;-80
2024/01/10 07:00:41;;;;;;;20.85;13.63;;;-4.00;99.90;;;;;;6238683;23;20154;-81
2024/01/10 07:03:07;;;;;;;17.05;11.02;;;-4.00;99.90;;;;;;6213163;23;20015;-81
2024/01/10 07:05:33;;;;;;;16.17;10.50;;;-4.00;99.90;;;;;;6212149;23;20042;-80
2024/01/10 07:07:59;;;;;;;22.30;13.85;;;-4.10;99.90;;;;;;6210963;23;20008;-81
2024/01/10 07:10:28;;;;;;;22.45;14.80;;;-4.10;99.90;;;;;;6211329;23;20095;-82
2024/01/10 07:12:57;;;;;;;24.50;15.07;;;-4.10;99.90;;;;;;6212085;23;20035;-81
2024/01/10 07:15:23;;;;;;;22.33;14.65;;;-4.00;99.90;;;;;;6238987;23;20396;-81
2024/01/10 07:17:49;;;;;;;28.92;16.52;;;-4.10;99.90;;;;;;6237122;23;20016;-81
2024/01/10 07:20:14;;;;;;;24.20;15.68;;;-4.00;99.90;;;;;;6212306;23;20016;-81
2024/01/10 07:22:41;;;;;;;25.30;15.32;;;-4.00;99.90;;;;;;6213522;23;20103;-81
2024/01/10 07:25:15;;;;;;;25.02;15.63;;;-4.00;99.90;;;;;;6238550;23;20503;-81
2024/01/10 07:27:41;;;;;;;22.15;14.30;;;-4.00;99.90;;;;;;6211853;23;20071;-81
2024/01/10 07:30:13;;;;;;;21.85;13.63;;;-4.00;99.90;;;;;;6238624;23;20027;-79
2024/01/10 07:32:42;;;;;;;23.10;14.43;;;-4.10;99.90;;;;;;6238383;23;20027;-80
2024/01/10 07:35:11;;;;;;;22.00;13.55;;;-4.00;99.90;;;;;;6211250;23;20023;-80
2024/01/10 07:37:38;;;;;;;23.85;13.70;;;-4.00;99.90;;;;;;6212991;23;20018;-79
2024/01/10 07:40:06;;;;;;;;;;;-4.00;99.90;;;;;;6238657;23;20091;-80
2024/01/10 07:42:32;;;;;;;23.30;13.68;;;-4.00;99.90;;;;;;6236470;23;19962;-78
2024/01/10 07:44:58;;;;;;;24.10;12.68;;;-3.90;99.90;;;;;;6213349;23;20018;-81
2024/01/10 07:47:24;;;;;;;15.48;8.75;;;-3.90;99.90;;;;;;6213295;23;20096;-81
2024/01/10 07:49:49;;;;;;;25.90;12.98;;;-3.90;99.90;;;;;;6237651;23;20356;-81
2024/01/10 07:52:16;;;;;;;24.77;13.38;;;-3.90;99.90;;;;;;6238346;23;20078;-81
2024/01/10 07:54:42;;;;;;;24.60;13.35;;;-3.90;99.90;;;;;;6238259;23;20020;-82
2024/01/10 07:57:08;;;;;;;24.00;12.35;;;-3.90;99.90;;;;;;6238032;23;20016;-81
2024/01/10 07:59:34;;;;;;;18.20;9.75;;;-3.90;99.90;;;;;;6237892;23;20058;-82
2024/01/10 08:02:00;;;;;;;25.25;12.35;;;-3.90;99.90;;;;;;6238279;23;20016;-82
2024/01/10 08:04:29;;;;;;;25.92;12.95;;;-3.90;99.90;;;;;;6237048;23;20054;-82
2024/01/10 08:06:55;;;;;;;23.95;12.02;;;-3.80;99.90;;;;;;6237251;23;20522;-82
2024/01/10 08:09:23;;;;;;;24.23;12.68;;;-3.90;99.90;;;;;;6237710;23;20020;-82
2024/01/10 08:11:49;;;;;;;25.50;12.20;;;-3.80;99.90;;;;;;6212605;23;20012;-81
2024/01/10 08:14:16;;;;;;;21.38;11.20;;;-3.80;99.90;;;;;;6213051;23;20012;-81
2024/01/10 08:16:41;;;;;;;;;;;-3.80;99.90;;;;;;6238624;23;20019;-81
2024/01/10 08:19:07;;;;;;;21.63;11.65;;;-3.80;99.90;;;;;;6237482;23;20335;-81
2024/01/10 08:21:33;;;;;;;23.40;11.40;;;-3.80;99.90;;;;;;6238341;23;20023;-81
2024/01/10 08:23:59;;;;;;;20.48;11.23;;;-3.80;99.90;;;;;;6237989;23;20016;-84
2024/01/10 08:26:26;;;;;;;21.70;11.35;;;-3.80;99.90;;;;;;6213080;23;20087;-84
2024/01/10 08:28:52;;;;;;;21.23;11.75;;;-3.70;99.90;;;;;;6238997;23;20016;-84
2024/01/10 08:31:18;;;;;;;16.80;9.57;;;-3.80;99.90;;;;;;6213473;23;20082;-84
2024/01/10 08:33:43;;;;;;;23.35;12.40;;;-3.70;99.90;;;;;;6211870;23;20018;-84
2024/01/10 08:36:12;;;;;;;22.30;12.65;;;-3.70;99.90;;;;;;6212786;23;20015;-83
2024/01/10 08:38:38;;;;;;;23.45;12.90;;;-3.70;99.90;;;;;;6212972;23;20098;-83
2024/01/10 08:41:04;;;;;;;22.55;12.52;;;-3.70;99.90;;;;;;6237758;23;20020;-83
2024/01/10 08:43:30;;;;;;;26.33;14.80;;;-3.70;99.90;;;;;;6212637;23;20091;-82
2024/01/10 08:45:57;;;;;;;26.13;15.13;;;-3.70;99.90;;;;;;6212899;23;20628;-82
2024/01/10 08:48:23;;;;;;;28.90;16.25;;;-3.70;99.90;;;;;;6237396;23;20023;-82
2024/01/10 08:50:50;;;;;;;28.13;16.75;;;-3.70;99.90;;;;;;6237811;23;20089;-82
2024/01/10 08:53:16;;;;;;;;;;;-3.60;99.90;;;;;;6238667;23;20024;-82
2024/01/10 08:55:42;;;;;;;33.38;18.70;;;-3.50;99.90;;;;;;6213008;23;20029;-84
2024/01/10 08:58:07;;;;;;;35.95;19.23;;;-3.50;99.90;;;;;;6238273;23;20078;-84
2024/01/10 09:00:33;;;;;;;36.20;19.95;;;-3.50;99.90;;;;;;6237922;23;20558;-82
2024/01/10 09:03:00;;;;;;;34.80;18.30;;;-3.50;99.90;;;;;;6212204;23;20016;-82
2024/01/10 09:05:26;;;;;;;34.80;18.55;;;-3.40;99.90;;;;;;6237578;23;20047;-81
2024/01/10 09:07:53;;;;;;;34.10;17.73;;;-3.50;99.90;;;;;;6212449;23;20345;-82
2024/01/10 09:10:21;;;;;;;36.03;17.65;;;-3.40;99.90;;;;;;6235264;23;20151;-81
2024/01/10 09:12:47;;;;;;;33.03;16.85;;;-3.40;99.90;;;;;;6235505;23;20035;-82
2024/01/10 09:15:14;;;;;;;31.40;16.55;;;-3.40;99.90;;;;;;6211868;23;20027;-82
2024/01/10 09:17:43;;;;;;;31.20;15.88;;;-3.40;99.90;;;;;;6212143;23;20040;-82
2024/01/10 09:20:10;;;;;;;31.13;15.32;;;-3.40;99.90;;;;;;6237031;23;20337;-81
2024/01/10 09:22:35;;;;;;;;;;;-3.30;99.90;;;;;;6213389;23;20021;-81
2024/01/10 09:25:04;;;;;;;33.25;15.27;;;-3.30;99.90;;;;;;6237955;23;19912;-82
2024/01/10 09:27:43;;;;;;;31.27;14.38;;;-3.30;99.90;;;;;;6237891;23;20024;-82
2024/01/10 09:30:10;;;;;;;28.40;14.32;;;-3.20;99.90;;;;;;6237802;23;20020;-81
2024/01/10 09:32:36;;;;;;;34.83;15.98;;;-3.20;99.90;;;;;;6237481;23;20012;-81
2024/01/10 09:35:02;;;;;;;29.10;15.15;;;-3.20;99.90;;;;;;6240220;23;20526;-81
2024/01/10 09:37:27;;;;;;;30.02;13.95;;;-3.10;99.90;;;;;;6240632;23;20027;-81
2024/01/10 09:39:53;;;;;;;29.03;13.47;;;-3.10;99.90;;;;;;6240204;23;20019;-80
2024/01/10 09:42:25;;;;;;;29.25;14.38;;;-3.00;99.90;;;;;;6239089;23;20226;-80
2024/01/10 09:44:51;;;;;;;30.55;13.98;;;-3.00;99.90;;;;;;6237644;23;20454;-80
2024/01/10 09:47:19;;;;;;;26.52;13.00;;;-3.00;99.90;;;;;;6238619;23;20017;-80
2024/01/10 09:49:46;;;;;;;27.38;12.85;;;-2.90;99.90;;;;;;6237894;23;20020;-80
2024/01/10 09:52:24;;;;;;;24.70;12.60;;;-2.90;99.90;;;;;;6239512;23;20031;-80
2024/01/10 09:54:54;;;;;;;24.17;11.88;;;-2.90;99.90;;;;;;6240181;23;20016;-80
2024/01/10 09:57:21;;;;;;;26.50;12.93;;;-2.80;99.90;;;;;;6239759;23;20024;-79
2024/01/10 09:59:47;;;;;;;;;;;-2.80;99.90;;;;;;6239996;23;20016;-80
2024/01/10 10:02:16;;;;;;;26.58;12.88;;;-2.80;99.90;;;;;;6240656;23;19922;-79
2024/01/10 10:05:00;;;;;;;26.15;12.52;;;-2.70;99.90;;;;;;6240719;23;20018;-80
2024/01/10 10:07:26;;;;;;;24.10;11.68;;;-2.70;99.90;;;;;;6213902;23;20520;-80
2024/01/10 10:09:53;;;;;;;21.87;11.23;;;-2.60;99.90;;;;;;6239865;23;20054;-80
2024/01/10 10:12:19;;;;;;;21.90;10.68;;;-2.60;99.90;;;;;;6239245;23;20326;-79
2024/01/10 10:14:44;;;;;;;21.27;10.55;;;-2.50;99.90;;;;;;6239814;23;20413;-80
2024/01/10 10:17:17;;;;;;;22.03;10.50;;;-2.50;99.90;;;;;;6215577;23;20020;-80
2024/01/10 10:19:44;;;;;;;20.75;10.27;;;-2.40;99.90;;;;;;6240631;23;20031;-80
2024/01/10 10:22:10;;;;;;;18.38;9.80;;;-2.30;99.90;;;;;;6240035;23;20016;-79
2024/01/10 10:24:36;;;;;;;;;;;-2.30;99.90;;;;;;6241178;23;20016;-80
2024/01/10 10:27:09;;;;;;;20.88;10.23;;;-2.20;99.90;;;;;;6241305;23;19911;-81
2024/01/10 10:29:36;;;;;;;18.55;9.77;;;-2.20;99.90;;;;;;6239518;23;20425;-81
2024/01/10 10:32:03;;;;;;;17.88;9.45;;;-2.10;99.90;;;;;;6241150;22;20730;-82
2024/01/10 10:34:32;;;;;;;22.95;11.07;;;-2.10;99.90;;;;;;6240000;23;20058;-80
2024/01/10 10:36:58;;;;;;;19.70;9.82;;;-2.00;99.90;;;;;;6241248;23;20039;-81
2024/01/10 10:39:24;;;;;;;22.02;10.43;;;-2.00;99.90;;;;;;6239715;23;20460;-82
2024/01/10 10:41:52;;;;;;;;;;;-1.90;99.90;;;;;;6239607;23;20008;-81
2024/01/10 10:44:20;;;;;;;28.10;13.02;;;-1.90;99.90;;;;;;6238803;23;20174;-81
2024/01/10 10:46:49;;;;;;;20.30;10.07;;;-1.80;99.90;;;;;;6239302;23;20019;-81
2024/01/10 10:49:18;;;;;;;19.85;10.18;;;-1.70;99.90;;;;;;6239385;23;20019;-80
2024/01/10 10:51:43;;;;;;;19.70;9.68;;;-1.60;99.90;;;;;;6241025;22;20073;-80
2024/01/10 10:54:09;;;;;;;16.30;8.82;;;-1.30;99.90;;;;;;6239379;23;20023;-80
2024/01/10 10:56:37;;;;;;;22.02;10.57;;;-1.20;99.90;;;;;;6213371;23;20024;-81
2024/01/10 10:59:04;;;;;;;20.83;10.40;;;-0.90;99.90;;;;;;6238413;23;20460;-80
2024/01/10 11:01:32;;;;;;;21.23;10.70;;;-0.80;99.90;;;;;;6239036;23;20090;-80
2024/01/10 11:03:58;;;;;;;18.88;9.75;;;-0.70;99.90;;;;;;6238535;23;20091;-81
2024/01/10 11:06:24;;;;;;;19.40;9.90;;;-0.50;99.90;;;;;;6239037;23;20016;-81
2024/01/10 11:08:55;;;;;;;18.25;9.75;;;-0.30;99.90;;;;;;6237987;23;20024;-81
2024/01/10 11:11:50;;;;;;;17.30;8.95;;;-0.10;99.90;;;;;;6238236;23;20098;-80
2024/01/10 11:14:31;;;;;;;18.45;9.60;;;0.00;99.90;;;;;;6240988;23;20026;-81
2024/01/10 11:17:35;;;;;;;19.27;9.90;;;0.10;99.90;;;;;;6238885;23;20023;-80
2024/01/10 11:20:19;;;;;;;16.08;8.95;;;0.20;99.90;;;;;;6240858;23;20027;-80
2024/01/10 11:23:16;;;;;;;17.58;8.68;;;0.20;99.90;;;;;;6238839;23;20087;-80
2024/01/10 11:25:42;;;;;;;16.80;8.80;;;0.40;99.90;;;;;;6238596;23;20444;-80
2024/01/10 11:28:07;;;;;;;18.00;9.50;;;0.60;99.90;;;;;;6238074;23;20022;-80
2024/01/10 11:30:37;;;;;;;15.00;8.63;;;0.60;99.90;;;;;;6239063;23;20300;-81
2024/01/10 11:33:41;;;;;;;17.38;8.57;;;0.70;99.90;;;;;;6240642;23;20069;-79
2024/01/10 11:36:11;;;;;;;15.63;8.80;;;0.80;99.90;;;;;;6238645;23;20151;-80
2024/01/10 11:38:59;;;;;;;13.43;7.55;;;0.90;99.90;;;;;;6237357;23;20353;-80
2024/01/10 11:41:29;;;;;;;14.40;7.60;;;0.80;1.00;;;;;;6237555;23;20019;-80
2024/01/10 11:44:10;;;;;;;13.70;7.70;;;0.80;99.90;;;;;;6238918;23;20016;-79
2024/01/10 11:46:38;;;;;;;15.63;7.95;;;0.90;99.90;;;;;;6238975;23;20456;-80
2024/01/10 11:49:07;;;;;;;14.10;7.30;;;1.00;99.90;;;;;;6240712;22;20311;-80
2024/01/10 11:51:35;;;;;;;12.73;7.05;;;1.10;1.00;;;;;;6238228;23;20035;-80
2024/01/10 11:54:01;;;;;;;14.75;7.85;;;1.20;1.00;;;;;;6240657;23;20028;-80
2024/01/10 11:56:38;;;;;;;13.45;7.13;;;1.20;99.90;;;;;;6237759;23;20016;-80
2024/01/10 11:59:10;;;;;;;17.33;8.15;;;1.40;99.90;;;;;;6238592;23;20079;-80
2024/01/10 12:01:38;;;;;;;13.52;7.82;;;1.40;99.90;;;;;;6238531;23;20020;-80
2024/01/10 12:04:04;;;;;;;16.13;8.18;;;1.30;50.20;;;;;;6238708;23;20023;-80
2024/01/10 12:06:31;;;;;;;14.70;7.82;;;1.30;1.00;;;;;;6238272;23;20055;-80
2024/01/10 12:08:57;;;;;;;15.70;8.65;;;1.20;1.00;;;;;;6239814;22;20022;-80
2024/01/10 12:11:23;;;;;;;14.52;8.43;;;1.10;99.90;;;;;;6237056;23;20340;-81
2024/01/10 12:13:49;;;;;;;14.32;8.23;;;1.20;1.00;;;;;;6238197;23;20012;-81
2024/01/10 12:16:15;;;;;;;13.77;7.70;;;1.40;1.00;;;;;;6239838;23;20039;-81
2024/01/10 12:18:42;;;;;;;14.07;7.50;;;1.50;59.70;;;;;;6238009;23;20755;-81
2024/01/10 12:21:12;;;;;;;13.80;8.15;;;1.60;75.30;;;;;;6238323;23;20514;-81
2024/01/10 12:23:38;;;;;;;14.80;8.30;;;1.70;78.70;;;;;;6238599;23;20020;-80
2024/01/10 12:26:07;;;;;;;;;;;1.70;1.00;;;;;;6240075;23;20047;-80
2024/01/10 12:28:34;;;;;;;14.43;8.10;;;1.80;1.00;;;;;;6240243;23;19915;-80
2024/01/10 12:30:59;;;;;;;;;;;1.70;99.90;;;;;;6240432;23;20475;-81
2024/01/10 12:33:25;;;;;;;14.85;8.32;;;1.70;99.90;;;;;;6240573;23;19911;-80